📊 Raw Sensor Data
Showing records 35301 to 35325 of 84,875 total
| ID | Distance (ft) | Battery V | Battery A | Int Temp (°F) | Int Humid (%) | Ext Temp (°F) | Solar V | RSSI | SNR | Time Stamp |
|---|---|---|---|---|---|---|---|---|---|---|
| 49587 | 15.1 | 3.72 | -5 | 60 | 46 | 62 | 0.00 | -70 | 7 | 08/18/2025 10:45 PM |
| 49586 | 15.1 | 3.84 | -5 | 60 | 47 | 62 | 0.00 | -70 | 8 | 08/18/2025 10:30 PM |
| 49585 | 15.1 | 3.84 | -5 | 62 | 48 | 64 | 0.00 | -69 | 7 | 08/18/2025 10:00 PM |
| 49584 | 15.1 | 3.72 | -5 | 63 | 48 | 64 | 0.00 | -69 | 8 | 08/18/2025 09:45 PM |
| 49583 | 15.1 | 3.72 | -5 | 64 | 49 | 65 | 0.00 | -69 | 8 | 08/18/2025 09:30 PM |
| 49582 | 15.1 | 3.72 | -5 | 64 | 50 | 65 | 0.00 | -69 | 8 | 08/18/2025 09:15 PM |
| 49581 | 15.1 | 3.85 | -5 | 66 | 51 | 66 | 0.00 | -68 | 9 | 08/18/2025 09:00 PM |
| 49580 | 15.1 | 3.85 | -5 | 67 | 53 | 66 | 0.10 | -69 | 8 | 08/18/2025 08:45 PM |
| 49579 | 15.1 | 3.73 | -5 | 69 | 55 | 67 | 0.00 | -69 | 8 | 08/18/2025 08:30 PM |
| 49578 | 15.1 | 3.73 | -5 | 71 | 57 | 69 | 0.30 | -69 | 8 | 08/18/2025 08:15 PM |
| 49577 | 15.2 | 3.73 | -9 | 75 | 58 | 71 | 1.50 | -69 | 8 | 08/18/2025 08:00 PM |
| 49576 | 15.2 | 3.85 | 0 | 82 | 55 | 75 | 4.60 | -70 | 8 | 08/18/2025 07:45 PM |
| 49575 | 15.3 | 3.87 | 0 | 88 | 53 | 79 | 4.60 | -71 | 8 | 08/18/2025 07:30 PM |
| 49574 | 15.3 | 3.89 | 0 | 91 | 52 | 82 | 4.50 | -69 | 7 | 08/18/2025 07:15 PM |
| 49573 | 15.3 | 3.95 | 9 | 93 | 51 | 88 | 4.50 | -70 | 8 | 08/18/2025 07:00 PM |
| 49572 | 15.4 | 4.06 | 16 | 94 | 51 | 87 | 4.60 | -70 | 8 | 08/18/2025 06:45 PM |
| 49571 | 15.4 | 3.92 | 0 | 96 | 50 | 86 | 5.10 | -71 | 8 | 08/18/2025 06:30 PM |
| 49570 | 15.4 | 3.85 | 0 | 97 | 49 | 89 | 5.10 | -69 | 8 | 08/18/2025 06:15 PM |
| 49569 | 15.4 | 3.83 | 0 | 98 | 49 | 88 | 5.10 | -70 | 8 | 08/18/2025 06:00 PM |
| 49568 | 15.4 | 3.83 | 0 | 99 | 48 | 90 | 5.10 | -70 | 8 | 08/18/2025 05:45 PM |
| 49567 | 15.5 | 3.83 | 0 | 100 | 48 | 88 | 5.10 | -70 | 7 | 08/18/2025 05:30 PM |
| 49566 | 15.4 | 3.83 | 0 | 102 | 46 | 91 | 5.10 | -71 | 7 | 08/18/2025 05:00 PM |
| 49565 | 15.4 | 3.83 | 0 | 102 | 46 | 93 | 5.10 | -69 | 8 | 08/18/2025 04:45 PM |
| 49564 | 15.5 | 3.83 | 0 | 103 | 45 | 92 | 5.10 | -70 | 8 | 08/18/2025 04:30 PM |
| 49563 | 15.5 | 3.98 | 0 | 104 | 44 | 93 | 5.10 | -70 | 8 | 08/18/2025 04:15 PM |